Time;durP1;ratioP1;P1;durP2;ratioP2;P2;SDS_P1;SDS_P2;PMS_P1;PMS_P2;Temp;Humidity;BMP_temperature;BMP_pressure;BME280_temperature;BME280_humidity;BME280_pressure;Samples;Min_cycle;Max_cycle;Signal;HPM_P1;HPM_P2
2023/12/06 00:00:13;;;;;;;59.67;26.53;;;-0.50;99.90;;;;;;4954098;29;20047;-89
2023/12/06 00:02:38;;;;;;;64.00;29.03;;;-0.20;99.90;;;;;;4954052;29;20043;-89
2023/12/06 00:05:04;;;;;;;62.33;27.40;;;0.10;99.90;;;;;;4954122;29;20058;-89
2023/12/06 00:07:30;;;;;;;62.80;28.13;;;-0.30;99.90;;;;;;4953084;28;20065;-89
2023/12/06 00:09:58;;;;;;;60.27;27.87;;;-0.40;99.90;;;;;;4953618;29;20138;-89
2023/12/06 00:15:42;;;;;;;59.83;27.33;;;0.80;99.90;;;;;;4961909;23;20150;-89
2023/12/06 00:18:17;;;;;;;63.50;28.43;;;0.00;99.90;;;;;;4955290;29;20566;-89
2023/12/06 00:20:52;;;;;;;59.13;27.70;;;-0.50;99.90;;;;;;4957259;29;20047;-89
2023/12/06 00:23:17;;;;;;;58.53;27.77;;;-0.60;99.90;;;;;;4954865;29;20157;-89
2023/12/06 00:25:49;;;;;;;60.87;28.27;;;-0.70;99.90;;;;;;4953673;29;20130;-89
2023/12/06 00:28:15;;;;;;;57.60;27.13;;;-0.40;99.90;;;;;;4954155;28;20527;-89
2023/12/06 00:30:41;;;;;;;60.83;28.33;;;1.70;99.90;;;;;;4953381;29;20047;-89
2023/12/06 00:33:06;;;;;;;57.93;27.77;;;0.70;99.90;;;;;;4953684;29;20449;-89
2023/12/06 00:35:32;;;;;;;60.23;28.73;;;-0.60;99.90;;;;;;4953436;29;20051;-89
2023/12/06 00:37:58;;;;;;;59.43;26.60;;;0.80;99.90;;;;;;4953037;29;20054;-89
2023/12/06 00:40:23;;;;;;;57.37;26.87;;;-0.60;99.90;;;;;;4973208;28;20053;-89
2023/12/06 00:42:49;;;;;;;58.30;28.07;;;0.00;99.90;;;;;;4972210;28;20039;-89
2023/12/06 00:45:15;;;;;;;53.33;26.67;;;0.30;99.90;;;;;;4972830;28;20142;-89
2023/12/06 00:47:40;;;;;;;58.10;27.30;;;-0.30;99.90;;;;;;4973260;28;20071;-89
2023/12/06 00:50:06;;;;;;;51.93;25.83;;;0.60;99.90;;;;;;4971782;28;20050;-89
2023/12/06 00:52:32;;;;;;;58.93;26.77;;;-0.20;99.90;;;;;;4973068;28;20058;-89
2023/12/06 00:54:58;;;;;;;56.67;27.33;;;1.30;99.90;;;;;;4972917;28;20051;-89
2023/12/06 00:57:24;;;;;;;60.73;27.67;;;-0.50;99.90;;;;;;4971451;28;20133;-88
2023/12/06 00:59:49;;;;;;;55.40;26.60;;;0.30;99.90;;;;;;4972930;28;20043;-89
2023/12/06 01:02:15;;;;;;;56.33;27.90;;;0.10;99.90;;;;;;4972414;28;20657;-89
2023/12/06 01:04:40;;;;;;;55.50;26.77;;;1.10;99.90;;;;;;4972260;28;20394;-89
2023/12/06 01:07:06;;;;;;;52.00;26.00;;;1.10;99.90;;;;;;4972371;28;20215;-89
2023/12/06 01:09:32;;;;;;;56.80;26.70;;;0.30;99.90;;;;;;5076355;23;20054;-89
2023/12/06 01:12:07;;;;;;;58.07;27.37;;;0.90;99.90;;;;;;4974707;28;20145;-89
2023/12/06 01:14:32;;;;;;;56.00;26.47;;;1.10;99.90;;;;;;4975365;28;20490;-90
2023/12/06 01:16:58;;;;;;;52.60;26.20;;;-0.70;99.90;;;;;;4974431;28;20060;-89
2023/12/06 01:19:24;;;;;;;52.13;26.17;;;0.10;99.90;;;;;;4975844;28;20042;-89
2023/12/06 01:21:49;;;;;;;55.10;25.87;;;0.50;99.90;;;;;;4975631;28;20486;-89
2023/12/06 01:24:20;;;;;;;53.53;27.17;;;1.10;99.90;;;;;;4974632;28;20453;-90
2023/12/06 01:26:46;;;;;;;52.63;25.50;;;-0.80;99.90;;;;;;4975473;28;20054;-89
2023/12/06 01:29:12;;;;;;;54.53;26.90;;;-0.40;99.90;;;;;;4974906;28;20104;-89
2023/12/06 01:31:38;;;;;;;52.80;26.87;;;-0.40;99.90;;;;;;4974509;28;20049;-89
2023/12/06 01:34:05;;;;;;;55.47;27.07;;;0.60;99.90;;;;;;4975248;28;20390;-89
2023/12/06 01:36:32;;;;;;;53.50;26.57;;;0.50;99.90;;;;;;4975621;28;20390;-89
2023/12/06 01:38:58;;;;;;;53.87;25.77;;;0.70;99.90;;;;;;4974511;28;20125;-89
2023/12/06 01:41:23;;;;;;;53.37;25.50;;;0.80;99.90;;;;;;4977533;28;20065;-89
2023/12/06 01:43:57;;;;;;;55.30;26.73;;;-0.40;99.90;;;;;;4979181;28;20058;-89
2023/12/06 01:46:25;;;;;;;51.80;25.20;;;-0.70;99.90;;;;;;4978123;28;20053;-90
2023/12/06 01:49:09;;;;;;;51.13;25.00;;;-0.80;99.90;;;;;;4975378;28;20050;-89
2023/12/06 01:52:02;;;;;;;51.97;26.77;;;1.10;99.90;;;;;;4978970;28;20054;-89
2023/12/06 01:54:49;;;;;;;54.30;25.83;;;1.40;99.90;;;;;;4971820;28;20058;-89
2023/12/06 01:57:15;;;;;;;55.70;26.77;;;-0.10;99.90;;;;;;4975580;28;20133;-89
2023/12/06 01:59:42;;;;;;;57.37;27.80;;;-0.30;99.90;;;;;;4974751;28;20038;-90
2023/12/06 02:02:08;;;;;;;53.60;26.73;;;-0.70;99.90;;;;;;4978391;28;20050;-89
2023/12/06 02:04:34;;;;;;;51.27;25.87;;;0.30;99.90;;;;;;4975335;28;20057;-89
2023/12/06 02:07:34;;;;;;;55.33;26.70;;;0.70;99.90;;;;;;4974417;28;20058;-89
2023/12/06 02:10:00;;;;;;;53.27;26.17;;;0.40;99.90;;;;;;4974609;28;20061;-89
2023/12/06 02:12:26;;;;;;;61.27;29.23;;;0.10;99.90;;;;;;4974931;28;20463;-89
2023/12/06 02:14:59;;;;;;;56.63;27.60;;;0.50;99.90;;;;;;4974424;28;20109;-89
2023/12/06 02:17:26;;;;;;;57.37;27.30;;;0.00;99.90;;;;;;4975304;28;20550;-89
2023/12/06 02:19:53;;;;;;;55.80;27.07;;;0.40;99.90;;;;;;4974832;28;20074;-89
2023/12/06 02:22:20;;;;;;;53.37;25.93;;;-0.20;99.90;;;;;;4974777;28;20142;-89
2023/12/06 02:24:49;;;;;;;56.57;27.77;;;1.20;99.90;;;;;;4975268;28;20047;-89
2023/12/06 02:27:15;;;;;;;59.93;28.93;;;0.20;99.90;;;;;;4973347;28;20554;-89
2023/12/06 02:29:41;;;;;;;56.87;28.03;;;-0.50;99.90;;;;;;4975133;28;20065;-89
2023/12/06 02:32:06;;;;;;;54.57;27.00;;;0.80;99.90;;;;;;4976499;28;20419;-89
2023/12/06 02:34:33;;;;;;;56.23;26.80;;;-0.30;99.90;;;;;;4987139;28;20127;-89
2023/12/06 02:37:07;;;;;;;59.43;27.80;;;0.70;99.90;;;;;;4987146;28;20093;-89
2023/12/06 02:39:37;;;;;;;58.67;27.00;;;-0.80;99.90;;;;;;4976924;28;20050;-89
2023/12/06 02:42:03;;;;;;;58.73;28.00;;;0.50;99.90;;;;;;4973812;28;20050;-89
2023/12/06 02:44:29;;;;;;;62.47;28.30;;;0.10;99.90;;;;;;4974512;28;20047;-89
2023/12/06 02:46:55;;;;;;;62.60;28.60;;;-0.10;99.90;;;;;;4974025;28;20057;-89
2023/12/06 02:49:20;;;;;;;58.43;28.47;;;0.90;99.90;;;;;;4973733;28;20570;-88
2023/12/06 02:51:46;;;;;;;58.03;27.37;;;1.30;99.90;;;;;;4973964;28;20406;-89
2023/12/06 02:54:12;;;;;;;55.83;25.87;;;;;;;;;;4974050;28;20089;-89
2023/12/06 02:56:38;;;;;;;59.90;26.87;;;0.10;99.90;;;;;;4973768;28;20054;-89
2023/12/06 02:59:06;;;;;;;59.87;26.87;;;-0.20;99.90;;;;;;4974120;28;20043;-89
2023/12/06 03:01:31;;;;;;;56.63;26.63;;;1.80;99.90;;;;;;4973666;28;20085;-89
2023/12/06 03:04:12;;;;;;;61.10;27.30;;;1.00;99.90;;;;;;4957196;28;20107;-89
2023/12/06 03:06:38;;;;;;;57.30;25.90;;;1.30;99.90;;;;;;4957490;28;20190;-89
2023/12/06 03:09:05;;;;;;;55.90;27.10;;;0.60;99.90;;;;;;4957724;28;20130;-89
2023/12/06 03:11:30;;;;;;;59.97;27.90;;;1.30;99.90;;;;;;4957567;28;20126;-89
2023/12/06 03:13:56;;;;;;;61.97;27.03;;;-0.20;99.90;;;;;;4957466;28;20563;-89
2023/12/06 03:16:25;;;;;;;55.70;26.93;;;0.10;99.90;;;;;;4957269;28;20057;-88
2023/12/06 03:18:51;;;;;;;62.43;28.27;;;-0.20;99.90;;;;;;4957619;28;20054;-89
2023/12/06 03:21:20;;;;;;;58.33;26.70;;;1.40;99.90;;;;;;4957437;28;20134;-89
2023/12/06 03:23:45;;;;;;;59.20;27.33;;;0.70;99.90;;;;;;4957313;28;20047;-89
2023/12/06 03:27:10;;;;;;;60.33;27.37;;;0.10;99.90;;;;;;4957616;28;20134;-89
2023/12/06 03:29:36;;;;;;;60.47;26.88;;;1.10;99.90;;;;;;4960726;28;20055;-89
2023/12/06 03:32:02;;;;;;;56.53;26.70;;;0.90;99.90;;;;;;4956853;28;20375;-88
2023/12/06 03:34:40;;;;;;;61.63;27.67;;;0.10;99.90;;;;;;5001730;28;20042;-89
2023/12/06 03:37:06;;;;;;;56.33;26.60;;;0.60;99.90;;;;;;4973366;28;20368;-89
2023/12/06 03:39:32;;;;;;;59.37;27.93;;;0.60;99.90;;;;;;4966325;28;20053;-89
2023/12/06 03:41:59;;;;;;;61.47;27.77;;;0.20;99.90;;;;;;4957103;28;20511;-89
2023/12/06 03:44:25;;;;;;;61.83;27.97;;;-0.10;99.90;;;;;;4956492;28;20134;-89
2023/12/06 03:46:50;;;;;;;66.10;26.80;;;-0.10;99.90;;;;;;4957353;28;20130;-88
2023/12/06 03:49:16;;;;;;;59.63;26.30;;;-0.20;99.90;;;;;;4975483;28;20050;-89
2023/12/06 03:51:42;;;;;;;56.37;25.67;;;0.20;99.90;;;;;;4976170;28;20524;-89
2023/12/06 03:54:08;;;;;;;61.93;26.63;;;0.00;99.90;;;;;;4977240;28;20449;-89
2023/12/06 03:56:33;;;;;;;58.70;25.47;;;-0.10;99.90;;;;;;4976700;28;20064;-89
2023/12/06 03:58:59;;;;;;;62.00;27.30;;;0.20;99.90;;;;;;4992703;28;20050;-89
2023/12/06 04:01:25;;;;;;;58.10;27.00;;;-0.10;99.90;;;;;;4976462;28;20463;-89
2023/12/06 04:03:50;;;;;;;60.23;27.27;;;0.50;99.90;;;;;;4973442;28;20047;-89
2023/12/06 04:06:19;;;;;;;59.93;27.27;;;1.00;99.90;;;;;;4955675;28;20179;-88
2023/12/06 04:08:44;;;;;;;63.53;26.77;;;0.80;99.90;;;;;;4954142;28;20083;-89
2023/12/06 04:11:10;;;;;;;61.93;27.47;;;0.10;99.90;;;;;;4953456;29;20059;-89
2023/12/06 04:13:36;;;;;;;53.07;26.33;;;1.40;99.90;;;;;;4953541;29;20043;-89
2023/12/06 04:16:01;;;;;;;61.13;26.40;;;1.40;99.90;;;;;;4953454;28;20043;-89
2023/12/06 04:18:27;;;;;;;59.40;25.43;;;-0.40;99.90;;;;;;4954068;29;20079;-89
2023/12/06 04:20:53;;;;;;;59.83;25.70;;;0.50;99.90;;;;;;4952610;29;20051;-89
2023/12/06 04:23:18;;;;;;;61.40;26.10;;;-0.10;99.90;;;;;;4953892;29;20051;-89
2023/12/06 04:25:44;;;;;;;58.97;25.67;;;0.60;99.90;;;;;;4956126;29;20058;-89
2023/12/06 04:28:09;;;;;;;53.67;25.07;;;0.20;99.90;;;;;;4953352;29;20384;-89
2023/12/06 04:30:35;;;;;;;57.37;26.00;;;1.50;99.90;;;;;;4953422;29;20419;-89
2023/12/06 04:33:01;;;;;;;58.07;25.53;;;0.80;99.90;;;;;;4961077;28;20086;-89
2023/12/06 04:35:26;;;;;;;58.67;24.47;;;0.50;99.90;;;;;;4972215;28;20082;-89
2023/12/06 04:37:52;;;;;;;52.50;23.93;;;1.00;99.90;;;;;;4972366;28;20046;-89
2023/12/06 04:40:18;;;;;;;55.93;25.67;;;0.90;99.90;;;;;;4972520;28;20043;-88
2023/12/06 04:42:43;;;;;;;50.93;24.57;;;0.30;99.90;;;;;;4971735;28;20193;-89
2023/12/06 04:45:09;;;;;;;51.57;22.70;;;0.90;99.90;;;;;;4972353;28;20055;-89
2023/12/06 04:47:35;;;;;;;54.23;24.43;;;0.30;99.90;;;;;;4972588;28;20125;-89
2023/12/06 04:50:01;;;;;;;54.20;25.10;;;0.90;99.90;;;;;;4971944;28;20483;-89
2023/12/06 04:52:26;;;;;;;47.93;23.63;;;0.50;99.90;;;;;;4972606;28;20054;-90
2023/12/06 04:54:52;;;;;;;50.87;23.63;;;1.30;99.90;;;;;;4971459;28;20046;-89
2023/12/06 04:57:19;;;;;;;47.40;23.30;;;0.60;99.90;;;;;;4972431;28;20043;-89
2023/12/06 04:59:45;;;;;;;45.77;22.40;;;0.00;99.90;;;;;;4972663;28;20055;-89
2023/12/06 05:02:10;;;;;;;46.77;21.67;;;0.40;99.90;;;;;;4968037;28;20083;-89
2023/12/06 05:04:36;;;;;;;45.40;21.63;;;0.30;99.90;;;;;;4972715;28;20054;-89
2023/12/06 05:07:02;;;;;;;46.63;22.17;;;1.30;99.90;;;;;;4971116;28;20575;-89
2023/12/06 05:09:28;;;;;;;44.43;21.30;;;1.60;99.90;;;;;;4971713;28;20089;-89
2023/12/06 05:11:53;;;;;;;46.57;21.97;;;0.00;99.90;;;;;;4975268;28;20050;-89
2023/12/06 05:14:19;;;;;;;46.80;20.97;;;0.00;99.90;;;;;;4972315;28;20406;-89
2023/12/06 05:16:45;;;;;;;45.13;20.77;;;-0.10;99.90;;;;;;4974463;28;20178;-89
2023/12/06 05:19:10;;;;;;;45.17;21.83;;;1.10;99.90;;;;;;4975844;28;20046;-89
2023/12/06 05:21:36;;;;;;;43.03;20.90;;;-0.10;99.90;;;;;;4976217;28;20054;-89
2023/12/06 05:24:10;;;;;;;46.20;21.70;;;-0.10;99.90;;;;;;4975260;28;20039;-89
2023/12/06 05:26:36;;;;;;;40.93;19.40;;;-0.10;99.90;;;;;;4976028;28;20062;-89
2023/12/06 05:29:08;;;;;;;47.20;22.50;;;0.40;99.90;;;;;;4975565;28;20038;-89
2023/12/06 05:31:34;;;;;;;46.53;21.57;;;0.20;99.90;;;;;;4975621;28;20070;-89
2023/12/06 05:33:59;;;;;;;43.13;21.50;;;0.40;99.90;;;;;;4975562;28;20046;-89
2023/12/06 05:36:25;;;;;;;48.40;21.70;;;0.00;99.90;;;;;;4975865;28;20406;-89
2023/12/06 05:38:51;;;;;;;45.10;20.73;;;0.00;99.90;;;;;;4975086;28;20046;-89
2023/12/06 05:41:16;;;;;;;43.07;20.40;;;0.80;99.90;;;;;;4975909;28;20089;-89
2023/12/06 05:43:42;;;;;;;43.60;21.27;;;0.10;99.90;;;;;;4975853;28;20090;-89
2023/12/06 05:46:11;;;;;;;44.03;21.87;;;1.30;99.90;;;;;;4974059;28;20121;-89
2023/12/06 05:48:36;;;;;;;46.83;21.30;;;0.70;99.90;;;;;;4975862;28;20562;-89
2023/12/06 05:51:03;;;;;;;49.20;23.43;;;1.20;99.90;;;;;;4974805;28;20150;-89
2023/12/06 05:53:34;;;;;;;42.27;21.97;;;0.30;99.90;;;;;;4976293;28;20439;-89
2023/12/06 05:56:02;;;;;;;;;;;0.70;99.90;;;;;;4978031;28;20483;-89
2023/12/06 05:58:28;;;;;;;46.80;21.17;;;0.30;99.90;;;;;;4975145;28;19969;-89
2023/12/06 06:00:53;;;;;;;45.00;21.40;;;0.50;99.90;;;;;;4976308;28;20057;-89
2023/12/06 06:03:19;;;;;;;45.33;22.30;;;0.10;99.90;;;;;;4979641;28;20085;-89
2023/12/06 06:05:45;;;;;;;46.83;21.43;;;1.20;99.90;;;;;;4975665;28;20051;-89
2023/12/06 06:08:11;;;;;;;46.83;22.73;;;0.10;99.90;;;;;;4976944;28;20042;-90
2023/12/06 06:11:27;;;;;;;47.90;23.20;;;1.20;99.90;;;;;;4976428;28;20141;-89
2023/12/06 06:14:20;;;;;;;46.83;22.97;;;-0.20;99.90;;;;;;4977104;28;20047;-89
2023/12/06 06:17:36;;;;;;;42.70;21.37;;;0.30;99.90;;;;;;4976777;28;20039;-89
2023/12/06 06:20:01;;;;;;;47.47;22.27;;;-0.10;99.90;;;;;;4975551;28;20047;-89
2023/12/06 06:22:27;;;;;;;49.43;23.47;;;0.40;99.90;;;;;;4976751;28;20113;-89
2023/12/06 06:25:31;;;;;;;44.43;21.93;;;1.80;99.90;;;;;;4975932;28;20043;-88
2023/12/06 06:27:57;;;;;;;50.15;23.67;;;0.70;99.90;;;;;;4974118;28;20124;-88
2023/12/06 06:30:24;;;;;;;47.20;22.40;;;1.20;99.90;;;;;;4975979;28;20503;-87
2023/12/06 06:32:49;;;;;;;46.93;21.70;;;0.20;99.90;;;;;;4976105;28;20138;-88
2023/12/06 06:35:15;;;;;;;45.83;22.17;;;0.40;99.90;;;;;;4975964;28;20131;-88
2023/12/06 06:37:41;;;;;;;44.70;20.67;;;0.60;99.90;;;;;;4976707;28;20054;-88
2023/12/06 06:40:07;;;;;;;43.40;22.17;;;1.50;99.90;;;;;;4978762;28;20053;-89
2023/12/06 06:42:33;;;;;;;46.03;21.97;;;-0.30;99.90;;;;;;4975543;28;20039;-89
2023/12/06 06:44:58;;;;;;;42.77;22.13;;;1.40;99.90;;;;;;4975772;28;20051;-89
2023/12/06 06:47:27;;;;;;;44.30;22.97;;;0.90;99.90;;;;;;4978122;28;20475;-89
2023/12/06 06:49:53;;;;;;;47.53;26.10;;;0.90;99.90;;;;;;4975151;28;20038;-89
2023/12/06 06:52:20;;;;;;;39.63;21.27;;;1.50;99.90;;;;;;4975551;28;20489;-90
2023/12/06 06:54:46;;;;;;;42.77;21.90;;;2.00;99.90;;;;;;4974753;28;20062;-89
2023/12/06 06:57:11;;;;;;;42.80;21.63;;;0.30;99.90;;;;;;4974714;28;20059;-89
2023/12/06 06:59:38;;;;;;;44.93;24.90;;;2.70;99.90;;;;;;4975625;28;20050;-89
2023/12/06 07:02:06;;;;;;;41.13;21.93;;;2.10;99.90;;;;;;4974799;28;20050;-90
2023/12/06 07:04:32;;;;;;;42.13;22.47;;;-0.10;99.90;;;;;;4975800;28;20517;-88
2023/12/06 07:06:58;;;;;;;41.73;21.80;;;1.20;99.90;;;;;;4975444;28;20134;-88
2023/12/06 07:09:24;;;;;;;42.33;21.03;;;0.80;99.90;;;;;;4974516;28;20054;-84
2023/12/06 07:11:49;;;;;;;42.63;21.90;;;0.40;99.90;;;;;;4974397;28;20070;-82
2023/12/06 07:14:15;;;;;;;43.47;21.77;;;0.50;99.90;;;;;;4974995;28;20049;-82
2023/12/06 07:16:40;;;;;;;42.17;22.87;;;0.50;99.90;;;;;;4973187;28;20427;-82
2023/12/06 07:19:06;;;;;;;41.77;21.90;;;0.60;99.90;;;;;;4973677;28;20057;-82
2023/12/06 07:21:32;;;;;;;40.57;21.73;;;0.50;99.90;;;;;;4974246;28;20039;-82
2023/12/06 07:23:57;;;;;;;44.30;21.77;;;1.60;99.90;;;;;;4972786;28;20042;-83
2023/12/06 07:26:23;;;;;;;44.33;22.57;;;0.60;99.90;;;;;;4974088;28;20895;-83
2023/12/06 07:28:50;;;;;;;41.40;22.47;;;0.60;99.90;;;;;;4973668;28;20097;-83
2023/12/06 07:31:16;;;;;;;45.03;25.93;;;0.60;99.90;;;;;;4973009;28;20085;-83
2023/12/06 07:33:42;;;;;;;43.07;21.77;;;0.70;99.90;;;;;;4963429;28;20083;-82
2023/12/06 07:36:10;;;;;;;46.40;24.57;;;0.60;99.90;;;;;;4953881;29;20043;-82
2023/12/06 07:38:36;;;;;;;42.07;21.20;;;0.70;99.90;;;;;;4952920;28;20051;-81
2023/12/06 07:41:02;;;;;;;43.60;22.67;;;0.60;99.90;;;;;;4953749;29;20483;-83
2023/12/06 07:43:27;;;;;;;40.63;21.20;;;0.70;99.90;;;;;;4953637;29;20051;-82
2023/12/06 07:45:53;;;;;;;42.70;22.03;;;0.70;99.90;;;;;;4953711;29;20047;-82
2023/12/06 07:48:19;;;;;;;41.47;21.63;;;0.70;99.90;;;;;;4955340;29;20400;-82
2023/12/06 07:50:44;;;;;;;40.20;22.60;;;0.70;99.90;;;;;;4953258;29;20054;-82
2023/12/06 07:53:12;;;;;;;44.60;22.80;;;0.70;99.90;;;;;;4953596;29;20039;-82
2023/12/06 07:55:39;;;;;;;38.90;20.97;;;0.70;99.90;;;;;;4954204;29;20138;-82
2023/12/06 07:58:05;;;;;;;40.43;21.60;;;0.70;99.90;;;;;;4953115;29;20126;-82
2023/12/06 08:00:32;;;;;;;40.60;23.03;;;0.70;99.90;;;;;;4954071;29;20158;-82
2023/12/06 08:02:58;;;;;;;52.50;24.73;;;0.70;99.90;;;;;;4953331;29;20130;-82
2023/12/06 08:05:24;;;;;;;46.97;24.67;;;0.80;99.90;;;;;;4953071;29;20131;-83
2023/12/06 08:07:49;;;;;;;49.97;25.23;;;0.80;99.90;;;;;;4953909;29;20134;-82
2023/12/06 08:10:22;;;;;;;47.17;25.20;;;0.80;99.90;;;;;;4970280;28;20051;-82
2023/12/06 08:12:48;;;;;;;50.33;26.27;;;0.80;99.90;;;;;;4955902;28;20085;-83
2023/12/06 08:15:14;;;;;;;54.67;26.63;;;0.90;99.90;;;;;;4956831;28;20084;-84
2023/12/06 08:17:40;;;;;;;48.17;25.57;;;0.80;99.90;;;;;;4957023;28;20059;-82
2023/12/06 08:20:10;;;;;;;64.53;34.83;;;0.90;99.90;;;;;;4955804;28;20051;-83
2023/12/06 08:22:35;;;;;;;50.87;27.37;;;0.90;99.90;;;;;;4956991;28;20061;-83
2023/12/06 08:25:01;;;;;;;52.47;27.57;;;0.90;99.90;;;;;;4956493;28;20050;-83
2023/12/06 08:27:28;;;;;;;47.90;25.97;;;0.90;99.90;;;;;;4956019;28;20050;-84
2023/12/06 08:29:55;;;;;;;49.83;26.30;;;0.90;99.90;;;;;;4956618;28;20109;-86
2023/12/06 08:32:21;;;;;;;48.10;25.30;;;0.90;99.90;;;;;;4956864;28;20042;-84
2023/12/06 08:35:05;;;;;;;48.07;25.37;;;0.90;99.90;;;;;;4956398;28;20050;-85
2023/12/06 08:37:36;;;;;;;51.55;25.45;;;1.00;99.90;;;;;;4964032;28;20034;-84
2023/12/06 08:40:03;;;;;;;50.97;29.47;;;1.00;99.90;;;;;;4974661;28;20128;-86
2023/12/06 08:42:35;;;;;;;48.43;25.37;;;1.00;99.90;;;;;;4974602;28;20062;-84
2023/12/06 08:45:00;;;;;;;48.83;25.40;;;0.90;99.90;;;;;;4975684;28;20482;-85
2023/12/06 08:47:26;;;;;;;47.27;25.63;;;1.10;99.90;;;;;;4975612;28;20141;-85
2023/12/06 08:49:52;;;;;;;60.13;34.20;;;1.10;99.90;;;;;;4975221;28;20081;-85
2023/12/06 08:52:17;;;;;;;66.00;37.07;;;1.10;99.90;;;;;;4975675;28;20049;-85
2023/12/06 08:54:43;;;;;;;74.87;44.90;;;0.90;99.90;;;;;;4975096;28;20467;-85
2023/12/06 08:57:08;;;;;;;102.10;57.10;;;1.10;99.90;;;;;;4975316;28;20040;-85
2023/12/06 08:59:34;;;;;;;99.57;54.83;;;1.10;99.90;;;;;;4975634;28;20046;-84
2023/12/06 09:02:04;;;;;;;52.23;30.83;;;1.10;99.90;;;;;;4974888;28;20042;-84
2023/12/06 09:04:29;;;;;;;54.57;32.40;;;1.20;99.90;;;;;;4975419;28;20095;-84
2023/12/06 09:07:05;;;;;;;60.30;37.43;;;1.20;99.90;;;;;;4975154;28;20042;-84
2023/12/06 09:09:31;;;;;;;77.87;47.77;;;1.60;99.90;;;;;;4974607;28;20069;-83
2023/12/06 09:11:57;;;;;;;58.47;36.20;;;1.00;99.90;;;;;;4975449;28;20108;-83
2023/12/06 09:14:22;;;;;;;57.07;34.63;;;1.20;99.90;;;;;;4975276;28;20042;-83
2023/12/06 09:16:48;;;;;;;58.37;37.23;;;1.20;99.90;;;;;;4975332;28;20185;-85
2023/12/06 09:19:14;;;;;;;57.80;37.03;;;1.30;99.90;;;;;;4975875;28;20043;-84
2023/12/06 09:21:41;;;;;;;64.47;43.67;;;1.30;99.90;;;;;;4975461;28;20042;-84
2023/12/06 09:24:10;;;;;;;48.03;28.90;;;1.20;99.90;;;;;;4972507;28;20046;-83
2023/12/06 09:26:37;;;;;;;49.70;29.40;;;1.40;99.90;;;;;;4989036;28;20046;-84
2023/12/06 09:29:05;;;;;;;55.67;31.13;;;1.40;99.90;;;;;;4974053;28;20042;-84
2023/12/06 09:31:34;;;;;;;51.93;32.00;;;2.00;99.90;;;;;;4975226;28;20402;-84
2023/12/06 09:34:01;;;;;;;43.87;25.40;;;1.50;99.90;;;;;;4974958;28;20057;-84
2023/12/06 09:36:27;;;;;;;51.50;30.90;;;1.50;99.90;;;;;;4971645;28;20066;-84
2023/12/06 09:38:57;;;;;;;43.57;26.30;;;1.50;99.90;;;;;;4955674;28;20178;-84
2023/12/06 09:41:28;;;;;;;44.00;25.23;;;1.60;99.90;;;;;;4980974;28;20494;-84
2023/12/06 09:43:53;;;;;;;38.83;23.03;;;1.60;99.90;;;;;;4974310;28;20054;-84
2023/12/06 09:46:19;;;;;;;40.83;23.20;;;1.60;99.90;;;;;;4975294;28;20062;-84
2023/12/06 09:48:47;;;;;;;41.90;22.47;;;1.60;99.90;;;;;;4975377;28;20078;-84
2023/12/06 09:51:12;;;;;;;42.13;23.23;;;1.50;99.90;;;;;;4974026;28;20046;-84
2023/12/06 09:53:38;;;;;;;43.50;22.67;;;1.60;99.90;;;;;;4975218;28;20049;-84
2023/12/06 09:56:07;;;;;;;46.17;27.63;;;1.60;99.90;;;;;;4975030;28;20108;-84
2023/12/06 09:58:32;;;;;;;42.00;23.00;;;1.70;99.90;;;;;;4991726;28;20505;-84
2023/12/06 10:00:58;;;;;;;48.03;25.63;;;1.60;99.90;;;;;;4974929;28;20070;-84
2023/12/06 10:03:24;;;;;;;41.77;22.93;;;1.70;99.90;;;;;;4995999;28;20046;-84
2023/12/06 10:05:57;;;;;;;41.10;24.17;;;1.70;99.90;;;;;;4974286;28;20487;-84
2023/12/06 10:08:23;;;;;;;41.20;22.27;;;1.70;99.90;;;;;;4959517;28;20106;-84
2023/12/06 10:11:05;;;;;;;45.33;24.70;;;2.60;99.90;;;;;;4958852;28;20057;-84
2023/12/06 10:13:41;;;;;;;40.30;21.83;;;1.70;99.90;;;;;;4958484;28;20506;-84
2023/12/06 10:16:19;;;;;;;37.60;19.47;;;1.70;99.90;;;;;;4976407;28;20491;-84
2023/12/06 10:18:49;;;;;;;37.53;20.53;;;1.70;99.90;;;;;;4958434;28;20535;-84
2023/12/06 10:21:19;;;;;;;37.77;20.27;;;1.80;99.90;;;;;;4958864;28;20051;-83
2023/12/06 10:23:54;;;;;;;43.20;21.17;;;1.80;99.90;;;;;;4958946;28;20039;-83
2023/12/06 10:26:20;;;;;;;39.47;21.27;;;1.90;99.90;;;;;;4973906;28;20050;-84
2023/12/06 10:28:46;;;;;;;36.37;19.37;;;1.80;99.90;;;;;;4974630;28;20051;-83
2023/12/06 10:31:12;;;;;;;34.13;19.30;;;1.80;99.90;;;;;;4958323;28;20133;-83
2023/12/06 10:33:39;;;;;;;38.40;19.83;;;1.80;99.90;;;;;;4957980;28;20133;-83
2023/12/06 10:36:08;;;;;;;35.27;19.33;;;1.80;99.90;;;;;;4962008;28;20051;-83
2023/12/06 10:38:36;;;;;;;32.87;18.90;;;1.90;99.90;;;;;;4974512;28;20038;-84
2023/12/06 10:41:03;;;;;;;34.10;19.17;;;1.90;99.90;;;;;;4973630;28;20082;-84
2023/12/06 10:43:30;;;;;;;32.33;18.90;;;1.90;99.90;;;;;;4974454;28;20098;-84
2023/12/06 10:45:56;;;;;;;37.60;18.87;;;1.80;99.90;;;;;;4974261;28;20046;-83
2023/12/06 10:48:23;;;;;;;35.30;18.60;;;1.90;99.90;;;;;;4973765;28;20050;-83
2023/12/06 10:50:49;;;;;;;33.50;18.20;;;1.90;99.90;;;;;;4973934;28;20152;-84
2023/12/06 10:53:17;;;;;;;32.27;18.60;;;1.90;99.90;;;;;;4974078;28;20063;-83
2023/12/06 10:55:44;;;;;;;33.73;18.90;;;1.90;99.90;;;;;;4973818;28;20057;-86
2023/12/06 10:58:18;;;;;;;31.77;17.27;;;1.90;99.90;;;;;;4974340;28;20172;-86
2023/12/06 11:00:48;;;;;;;35.42;18.13;;;1.90;99.90;;;;;;4976487;28;20078;-86
2023/12/06 11:03:45;;;;;;;33.67;18.43;;;1.90;99.90;;;;;;4953110;28;20073;-88
2023/12/06 11:06:38;;;;;;;33.10;18.33;;;3.30;99.90;;;;;;4969061;28;20049;-86
2023/12/06 11:09:22;;;;;;;35.20;19.55;;;2.00;99.90;;;;;;4975128;28;20166;-85
2023/12/06 11:11:53;;;;;;;35.40;22.00;;;2.00;99.90;;;;;;4973960;28;20125;-85
2023/12/06 11:14:55;;;;;;;38.23;21.97;;;3.20;99.90;;;;;;4977273;28;20116;-85
2023/12/06 11:17:30;;;;;;;32.97;18.37;;;2.00;99.90;;;;;;4984304;28;20128;-85
2023/12/06 11:19:56;;;;;;;33.17;19.40;;;2.00;99.90;;;;;;4993085;28;20061;-85
2023/12/06 11:22:25;;;;;;;37.50;19.37;;;2.00;99.90;;;;;;4992279;28;20046;-85
2023/12/06 11:24:51;;;;;;;33.80;19.40;;;2.10;99.90;;;;;;4993785;28;20042;-85
2023/12/06 11:27:19;;;;;;;31.37;17.93;;;2.00;99.90;;;;;;4993909;28;20180;-85
2023/12/06 11:29:45;;;;;;;33.10;18.50;;;2.00;99.90;;;;;;4992884;28;20047;-86
2023/12/06 11:32:12;;;;;;;33.47;18.90;;;2.10;99.90;;;;;;4994795;28;20049;-86
2023/12/06 11:34:40;;;;;;;33.37;18.47;;;2.10;99.90;;;;;;4986563;28;20046;-87
2023/12/06 11:37:19;;;;;;;32.53;18.57;;;2.20;99.90;;;;;;4975788;28;20582;-89
2023/12/06 11:40:14;;;;;;;32.37;18.87;;;2.10;99.90;;;;;;4976488;28;20050;-86
2023/12/06 11:42:40;;;;;;;34.27;19.13;;;2.20;99.90;;;;;;4968605;28;20054;-86
2023/12/06 11:45:25;;;;;;;31.57;17.77;;;2.20;99.90;;;;;;4976408;28;20456;-87
2023/12/06 11:47:52;;;;;;;33.43;18.90;;;2.20;99.90;;;;;;4977307;28;20119;-86
2023/12/06 11:50:19;;;;;;;32.83;20.00;;;2.40;99.90;;;;;;4994385;28;20042;-86
2023/12/06 11:52:53;;;;;;;34.73;19.17;;;2.00;99.90;;;;;;4977803;28;20096;-86
2023/12/06 11:55:20;;;;;;;34.63;19.70;;;2.20;99.90;;;;;;4978095;28;20065;-86
2023/12/06 11:58:13;;;;;;;33.13;18.73;;;2.70;99.90;;;;;;4976965;28;20552;-87
2023/12/06 12:00:52;;;;;;;37.40;19.20;;;2.20;99.90;;;;;;4976898;28;20088;-86
2023/12/06 12:03:38;;;;;;;34.47;19.10;;;;;;;;;;4978745;28;20509;-87
2023/12/06 12:06:08;;;;;;;31.63;18.13;;;2.30;99.90;;;;;;4961038;28;20050;-84
2023/12/06 12:08:34;;;;;;;29.10;17.80;;;2.60;99.90;;;;;;4973899;28;20048;-83
2023/12/06 12:11:07;;;;;;;32.33;17.10;;;2.30;99.90;;;;;;4974755;28;20053;-83
2023/12/06 12:13:47;;;;;;;31.48;17.45;;;3.70;99.90;;;;;;4972965;28;20952;-83
2023/12/06 12:16:27;;;;;;;33.77;17.57;;;2.80;99.90;;;;;;4973459;28;20034;-83
2023/12/06 12:19:08;;;;;;;31.73;18.47;;;2.80;99.90;;;;;;4975221;28;20046;-83
2023/12/06 12:21:34;;;;;;;32.20;18.60;;;3.70;99.90;;;;;;4973623;28;20077;-83
2023/12/06 12:24:02;;;;;;;29.77;18.13;;;2.40;99.90;;;;;;4975463;28;20502;-84
2023/12/06 12:26:37;;;;;;;32.17;17.57;;;2.40;99.90;;;;;;4972886;28;20506;-84
2023/12/06 12:29:16;;;;;;;28.93;17.97;;;2.80;99.90;;;;;;4975256;28;20046;-83
2023/12/06 12:31:42;;;;;;;29.47;17.93;;;3.30;99.90;;;;;;4974852;28;20057;-83
2023/12/06 12:34:10;;;;;;;30.67;17.07;;;3.60;99.90;;;;;;4991640;28;20487;-83
2023/12/06 12:36:36;;;;;;;31.13;16.93;;;2.40;99.90;;;;;;4992978;28;20422;-83
2023/12/06 12:39:08;;;;;;;29.07;16.87;;;2.50;99.90;;;;;;4988089;28;20050;-84
2023/12/06 12:41:34;;;;;;;30.77;16.93;;;2.40;99.90;;;;;;4973139;28;20457;-83
2023/12/06 12:44:00;;;;;;;27.07;16.40;;;3.40;99.90;;;;;;4974911;28;20045;-83
2023/12/06 12:46:26;;;;;;;31.53;17.50;;;2.60;99.90;;;;;;4974563;28;20046;-83